KOSU/OSU METAR and TAF weather

Enter ICAO airport designator
Station Type Date Time Source
KOSU METAR 2021/03/01 03:37 UTC NOAA

KOSU 010337Z 24009KT 10SM -RA SCT013 BKN030 OVC085 14/13 A2978 RMK AO2 RAB19 P0000 T01440128


Station Type Date Time Source
KOSU Decoded METAR 2021/03/01 03:37 UTC NOAA

OHIO STATE UNIVERSITY AIRPORT , OH, United States (KOSU) 40-05N 083-05W 280M
Feb 28, 2021 - 10:37 PM EST / 2021.03.01 0337 UTC
Wind: from the WSW (240 degrees) at 10 MPH (9 KT):0
Visibility: 10 mile(s):0
Sky conditions: overcast
Weather: light rain
Precipitation last hour: A trace
Temperature: 57.9 F (14.4 C)
Dew Point: 55.0 F (12.8 C)
Relative Humidity: 90%
Pressure (altimeter): 29.78 in. Hg (1008 hPa)
ob: KOSU 010337Z 24009KT 10SM -RA SCT013 BKN030 OVC085 14/13 A2978 RMK AO2 RAB19 P0000 T01440128
cycle: 3

Station Type Date Time Source
KOSU TAF UTC NOAA

Error!

Example: see airport list